This is the latest recevied weather packets stored in our database for station/object F4LNO-10. If no packets are shown the sender has not sent any weather packets the latest 10 day(s).
| Time | Temp. | Humidity | Pressure | Rain* | Wind** | Luminosity | Snow |
|---|---|---|---|---|---|---|---|
| 1777087241 | 20° C | 60% | 1016.8 hPa | - | - | - | - |
| 1777086340 | 21.67° C | 58% | 1016.7 hPa | - | - | - | - |
| 1777085439 | 18.89° C | 63% | 1016.9 hPa | - | - | - | - |
| 1777084538 | 19.44° C | 63% | 1016.8 hPa | - | - | - | - |
| 1777083638 | 19.44° C | 62% | 1016.8 hPa | - | - | - | - |
| 1777082737 | 19.44° C | 62% | 1016.7 hPa | - | - | - | - |
| 1777081835 | 19.44° C | 62% | 1016.7 hPa | - | - | - | - |
| 1777080955 | 21.67° C | 57% | 1016.5 hPa | - | - | - | - |
| 1777080054 | 21.67° C | 58% | 1016.6 hPa | - | - | - | - |
| 1777079154 | 21.67° C | 57% | 1016.7 hPa | - | - | - | - |
| 1777078253 | 21.67° C | 58% | 1016.7 hPa | - | - | - | - |
| 1777077352 | 21.67° C | 58% | 1016.7 hPa | - | - | - | - |
| 1777076451 | 21.67° C | 57% | 1016.8 hPa | - | - | - | - |
| 1777075550 | 21.67° C | 57% | 1016.9 hPa | - | - | - | - |
| 1777074649 | 21.67° C | 57% | 1016.9 hPa | - | - | - | - |
| 1777073748 | 21.67° C | 56% | 1016.9 hPa | - | - | - | - |
| 1777072848 | 21.67° C | 56% | 1016.9 hPa | - | - | - | - |
| 1777071947 | 21.67° C | 56% | 1016.9 hPa | - | - | - | - |
| 1777071046 | 21.67° C | 57% | 1016.9 hPa | - | - | - | - |
| 1777070145 | 22.22° C | 57% | 1016.9 hPa | - | - | - | - |
| 1777069244 | 22.22° C | 57% | 1016.9 hPa | - | - | - | - |
| 1777068343 | 20.56° C | 61% | 1017.1 hPa | - | - | - | - |
| 1777067443 | 21.67° C | 58% | 1017.1 hPa | - | - | - | - |
| 1777066542 | 20.56° C | 60% | 1017 hPa | - | - | - | - |
| 1777065641 | 21.11° C | 60% | 1016.9 hPa | - | - | - | - |
* Rain since midnight (hover to see other rain measurements)
** Current wind speed in m/s (hover to see current wind gust speed)